Time;durP1;ratioP1;P1;durP2;ratioP2;P2;SDS_P1;SDS_P2;PMS_P1;PMS_P2;Temp;Humidity;BMP_temperature;BMP_pressure;BME280_temperature;BME280_humidity;BME280_pressure;Samples;Min_cycle;Max_cycle;Signal;HPM_P1;HPM_P2
2022/06/06 00:01:37;;;;;;;9.95;5.65;;;;;;;21.56;44.45;101528.72;5067147;28;20032;-84
2022/06/06 00:04:03;;;;;;;8.50;5.70;;;;;;;21.63;44.21;101528.88;5073450;28;20032;-84
2022/06/06 00:06:29;;;;;;;8.65;6.05;;;;;;;21.66;44.28;101530.09;5073548;28;20024;-82
2022/06/06 00:08:55;;;;;;;9.73;5.90;;;;;;;21.66;44.20;101527.31;5073393;28;20028;-81
2022/06/06 00:11:20;;;;;;;8.27;5.40;;;;;;;21.56;44.62;101526.75;5071975;28;20028;-82
2022/06/06 00:13:47;;;;;;;9.20;5.28;;;;;;;21.58;44.28;101526.38;5072126;28;20124;-85
2022/06/06 00:16:13;;;;;;;6.47;5.20;;;;;;;21.55;44.78;101527.13;5072014;28;20079;-82
2022/06/06 00:18:39;;;;;;;8.20;5.60;;;;;;;21.47;44.79;101523.41;5072090;28;20090;-82
2022/06/06 00:21:09;;;;;;;8.82;4.90;;;;;;;21.46;44.66;101521.81;5073095;28;20689;-82
2022/06/06 00:23:36;;;;;;;10.23;5.20;;;;;;;21.51;44.63;101518.69;5073388;28;20107;-82
2022/06/06 00:26:07;;;;;;;10.32;5.88;;;;;;;21.48;44.66;101519.44;5071574;28;20032;-81
2022/06/06 00:28:35;;;;;;;10.32;5.57;;;;;;;21.60;44.52;101510.13;5071883;28;20028;-84
2022/06/06 00:34:48;;;;;;;11.40;5.25;;;;;;;21.50;44.83;101510.72;5071860;28;20031;-83
2022/06/06 00:36:34;;;;;;;9.80;5.60;;;;;;;21.48;44.65;101507.53;5073389;28;20031;-82
2022/06/06 00:39:01;;;;;;;8.55;5.50;;;;;;;21.45;44.77;101506.25;5072510;28;20383;-83
2022/06/06 00:41:26;;;;;;;11.05;6.05;;;;;;;21.44;44.97;101504.66;5071608;28;20074;-84
2022/06/06 00:44:08;;;;;;;8.25;5.32;;;;;;;21.39;45.25;101506.97;5071583;28;20383;-83
2022/06/06 00:46:44;;;;;;;11.88;6.30;;;;;;;21.48;45.01;101504.75;5051769;28;20459;-85
2022/06/06 00:49:19;;;;;;;8.10;5.45;;;;;;;21.40;45.64;101512.16;5051849;28;20031;-83
2022/06/06 00:51:44;;;;;;;10.50;5.85;;;;;;;21.51;45.09;101504.81;5061681;28;20085;-81
2022/06/06 00:54:10;;;;;;;9.73;5.15;;;;;;;21.59;44.99;101512.09;5071566;28;20025;-82
2022/06/06 00:56:47;;;;;;;7.38;5.03;;;;;;;21.49;45.12;101509.94;5071795;28;20036;-83
2022/06/06 00:59:23;;;;;;;9.82;5.53;;;;;;;21.41;45.22;101508.19;5070835;28;20399;-85
2022/06/06 01:01:50;;;;;;;9.75;5.90;;;;;;;21.53;44.96;101508.00;5071405;28;20054;-82
2022/06/06 01:04:21;;;;;;;12.25;5.35;;;;;;;21.25;45.23;101507.47;5071524;28;20475;-84
2022/06/06 01:06:47;;;;;;;10.32;5.60;;;;;;;21.40;44.96;101498.25;5071466;28;20021;-84
2022/06/06 01:09:15;;;;;;;7.70;5.25;;;;;;;21.35;44.85;101492.19;5105134;28;20032;-86
2022/06/06 01:11:45;;;;;;;11.60;5.93;;;;;;;21.47;44.63;101503.16;5071415;28;20494;-83
2022/06/06 01:14:17;;;;;;;10.13;5.55;;;;;;;21.45;44.43;101503.50;5071269;28;20029;-82
2022/06/06 01:17:05;;;;;;;10.13;5.20;;;;;;;21.33;44.86;101501.69;5072687;28;20029;-81
2022/06/06 01:20:16;;;;;;;11.38;5.85;;;;;;;21.49;44.81;101504.38;5071042;28;20035;-82
2022/06/06 01:23:18;;;;;;;12.43;7.30;;;;;;;21.50;44.87;101500.41;5062590;28;20036;-81
2022/06/06 01:26:03;;;;;;;10.05;5.82;;;;;;;21.75;44.27;101500.84;5072489;28;20025;-83
2022/06/06 01:28:47;;;;;;;8.27;5.18;;;;;;;21.60;44.52;101499.78;5072479;28;20160;-83
2022/06/06 01:31:19;;;;;;;10.32;5.68;;;;;;;21.44;45.19;101493.53;5071095;28;20021;-81
2022/06/06 01:33:57;;;;;;;14.02;6.07;;;;;;;21.61;44.33;101495.03;5071139;28;20471;-83
2022/06/06 01:36:27;;;;;;;9.00;4.97;;;;;;;21.56;44.42;101501.72;5068726;28;20107;-85
2022/06/06 01:38:54;;;;;;;5.22;3.72;;;;;;;21.49;44.40;101496.03;5070205;28;20375;-83
2022/06/06 01:41:30;;;;;;;10.50;4.78;;;;;;;21.54;43.72;101492.97;5072135;28;20054;-83
2022/06/06 01:44:14;;;;;;;9.07;4.50;;;;;;;21.49;43.94;101500.78;5072406;28;20025;-83
2022/06/06 01:46:40;;;;;;;8.10;4.43;;;;;;;21.57;43.56;101489.41;5071979;28;20499;-85
2022/06/06 01:49:10;;;;;;;9.13;4.68;;;;;;;21.52;43.58;101495.28;5070975;28;20039;-83
2022/06/06 01:51:36;;;;;;;;;;;;;;;21.38;43.42;101492.22;5072630;28;20508;-83
2022/06/06 01:54:01;;;;;;;7.78;4.57;;;;;;;21.44;43.60;101484.41;5071017;28;20011;-83
2022/06/06 01:56:30;;;;;;;9.18;4.22;;;;;;;21.44;43.32;101490.75;5070909;28;20047;-82
2022/06/06 01:58:57;;;;;;;6.00;3.63;;;;;;;21.48;43.10;101486.09;5070914;28;20134;-83
2022/06/06 02:01:23;;;;;;;7.47;4.70;;;;;;;21.48;43.34;101486.09;5070611;28;20262;-81
2022/06/06 02:03:48;;;;;;;10.23;4.60;;;;;;;21.55;43.11;101480.66;5070710;28;20550;-82
2022/06/06 02:06:14;;;;;;;7.15;4.07;;;;;;;21.52;43.15;101477.78;5070684;28;20033;-82
2022/06/06 02:08:42;;;;;;;5.65;3.88;;;;;;;21.42;43.20;101478.41;5074269;28;20367;-83
2022/06/06 02:11:09;;;;;;;6.47;4.25;;;;;;;21.47;43.00;101475.34;5075646;28;20025;-82
2022/06/06 02:13:35;;;;;;;7.28;4.32;;;;;;;21.47;43.06;101472.56;5074431;28;20391;-82
2022/06/06 02:16:00;;;;;;;10.15;4.53;;;;;;;21.43;42.94;101475.25;5074130;28;20028;-83
2022/06/06 02:18:26;;;;;;;10.30;4.45;;;;;;;21.37;43.26;101473.94;5074463;28;20489;-84
2022/06/06 02:20:53;;;;;;;12.23;5.38;;;;;;;21.45;42.79;101475.69;5074232;28;20047;-82
2022/06/06 02:23:19;;;;;;;7.43;4.10;;;;;;;21.36;43.13;101469.56;5074292;28;20040;-82
2022/06/06 02:25:45;;;;;;;6.70;3.83;;;;;;;21.42;42.89;101468.09;5074088;28;20025;-83
2022/06/06 02:28:10;;;;;;;7.10;3.88;;;;;;;21.38;43.32;101472.78;5074271;28;20031;-82
2022/06/06 02:30:37;;;;;;;12.13;4.55;;;;;;;21.45;42.97;101472.91;5073991;28;20021;-85
2022/06/06 02:33:03;;;;;;;5.57;4.03;;;;;;;21.39;42.97;101473.59;5072925;28;20036;-82
2022/06/06 02:35:33;;;;;;;6.65;4.10;;;;;;;21.39;42.87;101466.06;5072398;28;20032;-84
2022/06/06 02:37:58;;;;;;;;;;;;;;;21.37;42.76;101468.38;5075609;28;20028;-91
2022/06/06 02:40:27;;;;;;;9.32;3.83;;;;;;;21.43;42.49;101464.13;5076267;28;19954;-91
2022/06/06 02:42:53;;;;;;;6.30;3.92;;;;;;;21.39;42.75;101466.06;5075608;28;20036;-89
2022/06/06 02:45:19;;;;;;;5.50;3.85;;;;;;;21.37;42.76;101468.38;5075585;28;20025;-90
2022/06/06 02:47:52;;;;;;;7.78;4.32;;;;;;;21.27;42.96;101469.81;5076419;28;20081;-90
2022/06/06 02:50:20;;;;;;;8.27;3.92;;;;;;;21.38;42.70;101463.63;5075716;28;20023;-92
2022/06/06 02:52:46;;;;;;;6.65;4.50;;;;;;;21.47;42.66;101459.47;5074974;28;20021;-85
2022/06/06 02:55:13;;;;;;;9.63;4.28;;;;;;;21.46;42.62;101460.63;5073672;28;20032;-90
2022/06/06 02:57:47;;;;;;;6.72;3.88;;;;;;;21.49;42.38;101453.53;5074438;28;20056;-88
2022/06/06 03:00:16;;;;;;;5.13;4.05;;;;;;;21.51;42.48;101457.53;5074609;28;20081;-86
2022/06/06 03:02:42;;;;;;;7.10;3.88;;;;;;;21.56;42.39;101446.13;5062944;28;20020;-87
2022/06/06 03:05:09;;;;;;;6.18;3.70;;;;;;;21.51;42.41;101451.16;5074006;28;20033;-86
2022/06/06 03:07:44;;;;;;;9.35;4.32;;;;;;;21.51;42.38;101448.38;5074450;28;20086;-87
2022/06/06 03:10:18;;;;;;;6.97;3.80;;;;;;;21.51;42.49;101453.94;5074813;28;20028;-87
2022/06/06 03:13:35;;;;;;;8.27;3.85;;;;;;;21.48;42.59;101452.72;5074529;28;20024;-88
2022/06/06 03:22:55;;;;;;;7.45;5.25;;;;;;;21.43;42.55;101450.25;5065684;28;20041;-86
2022/06/06 03:25:53;;;;;;;6.22;4.55;;;;;;;21.42;42.62;101447.84;5058978;28;20426;-86
2022/06/06 03:28:40;;;;;;;7.78;5.20;;;;;;;21.33;43.13;101448.88;5073182;28;20024;-87
2022/06/06 03:31:17;;;;;;;8.77;5.22;;;;;;;21.38;42.99;101449.72;5071273;28;20035;-85
2022/06/06 03:34:12;;;;;;;8.45;4.35;;;;;;;21.38;42.96;101444.97;5073181;28;20082;-90
2022/06/06 03:36:59;;;;;;;9.57;4.68;;;;;;;21.32;43.15;101438.94;5068324;28;20410;-86
2022/06/06 03:39:54;;;;;;;7.68;3.50;;;;;;;21.39;43.30;101432.72;5053493;28;20061;-86
2022/06/06 03:42:27;;;;;;;5.65;3.60;;;;;;;21.36;43.10;101435.41;5062335;28;20024;-87
2022/06/06 03:45:32;;;;;;;7.30;3.72;;;;;;;21.22;43.48;101428.38;5072896;28;20037;-88
2022/06/06 03:48:00;;;;;;;5.13;3.72;;;;;;;21.27;43.48;101430.06;5051014;28;20048;-86
2022/06/06 03:50:26;;;;;;;5.20;2.92;;;;;;;21.29;43.34;101422.19;5073359;28;20460;-86
2022/06/06 03:53:10;;;;;;;7.20;3.00;;;;;;;21.28;43.52;101420.56;5073452;28;20067;-86
2022/06/06 03:55:42;;;;;;;6.45;3.28;;;;;;;21.28;43.32;101415.03;5073887;28;20025;-90
2022/06/06 03:58:12;;;;;;;5.03;2.88;;;;;;;21.25;43.56;101418.53;5073575;28;20036;-88
2022/06/06 04:00:39;;;;;;;;;;;;;;;21.29;43.45;101417.44;5073628;28;20035;-87
2022/06/06 04:03:05;;;;;;;5.70;3.05;;;;;;;21.27;43.12;101410.59;5073180;28;19923;-86
2022/06/06 04:05:36;;;;;;;5.03;2.97;;;;;;;21.27;43.36;101418.94;5073861;28;20036;-93
2022/06/06 04:08:02;;;;;;;4.35;2.67;;;;;;;21.28;43.26;101412.25;5074150;28;20028;-89
2022/06/06 04:10:50;;;;;;;15.10;3.80;;;;;;;21.18;43.29;101413.63;5074120;28;20085;-90
2022/06/06 04:13:29;;;;;;;7.85;2.90;;;;;;;21.19;43.31;101411.66;5087588;28;20033;-82
2022/06/06 04:16:10;;;;;;;7.82;3.53;;;;;;;21.08;43.68;101410.63;5072099;28;20037;-83
2022/06/06 04:18:54;;;;;;;5.20;3.20;;;;;;;21.16;43.34;101407.66;5073101;28;20446;-82
2022/06/06 04:21:54;;;;;;;6.22;3.85;;;;;;;21.11;43.54;101412.69;5073108;28;20032;-86
2022/06/06 04:24:38;;;;;;;;;;;;;;;21.17;43.28;101416.78;5069420;28;20048;-83
2022/06/06 04:27:27;;;;;;;6.60;4.05;;;;;;;21.21;43.45;101417.63;5072991;28;19947;-83
2022/06/06 04:30:03;;;;;;;6.00;3.75;;;;;;;21.18;43.11;101418.38;5072998;28;20085;-82
2022/06/06 04:32:44;;;;;;;7.07;3.63;;;;;;;21.04;43.65;101419.72;5072842;28;20048;-82
2022/06/06 04:35:25;;;;;;;7.85;4.10;;;;;;;21.01;43.33;101417.69;5071693;28;20395;-84
2022/06/06 04:37:56;;;;;;;7.00;3.80;;;;;;;21.16;43.14;101417.94;5072840;28;20028;-82
2022/06/06 04:40:49;;;;;;;6.55;4.07;;;;;;;21.04;43.38;101425.28;5071375;28;20041;-84
2022/06/06 04:43:33;;;;;;;6.88;4.25;;;;;;;21.13;43.20;101425.03;5072629;28;20039;-81
2022/06/06 04:46:09;;;;;;;6.28;3.97;;;;;;;21.23;43.05;101429.19;5071609;28;20390;-83
2022/06/06 04:48:35;;;;;;;6.78;4.25;;;;;;;21.24;42.76;101428.03;5071682;28;20498;-85
2022/06/06 04:51:03;;;;;;;11.75;4.75;;;;;;;21.18;42.99;101426.72;5071563;28;20029;-82
2022/06/06 04:53:31;;;;;;;6.30;3.55;;;;;;;21.12;42.90;101431.78;5072412;28;20398;-81
2022/06/06 04:55:58;;;;;;;6.85;4.00;;;;;;;21.12;42.84;101436.53;5071545;28;20036;-83
2022/06/06 04:58:27;;;;;;;6.43;4.43;;;;;;;21.14;42.92;101437.75;5071349;28;20486;-84
2022/06/06 05:00:54;;;;;;;7.22;4.10;;;;;;;21.16;42.83;101437.38;5072374;28;20029;-81
2022/06/06 05:03:20;;;;;;;13.13;4.50;;;;;;;21.14;42.76;101432.19;5071234;28;20028;-82
2022/06/06 05:06:00;;;;;;;7.93;4.40;;;;;;;21.05;43.05;101440.78;5072092;28;20028;-82
2022/06/06 05:08:51;;;;;;;6.47;3.47;;;;;;;21.01;43.21;101434.34;5072568;28;20029;-81
2022/06/06 05:11:35;;;;;;;10.57;4.55;;;;;;;21.16;42.88;101431.81;5071127;28;20021;-83
2022/06/06 05:14:06;;;;;;;6.30;4.10;;;;;;;21.21;42.64;101437.09;5070976;28;20025;-82
2022/06/06 05:17:03;;;;;;;11.52;5.05;;;;;;;21.14;42.96;101436.94;5071388;28;20166;-81
2022/06/06 05:19:34;;;;;;;7.25;4.20;;;;;;;21.28;42.75;101434.47;5072216;28;20542;-81
2022/06/06 05:22:28;;;;;;;6.65;3.45;;;;;;;21.25;42.67;101437.97;5072420;28;20040;-81
2022/06/06 05:25:00;;;;;;;10.18;3.92;;;;;;;21.29;42.65;101436.88;5071003;28;20024;-82
2022/06/06 05:27:51;;;;;;;7.13;4.07;;;;;;;21.33;42.62;101440.53;5072162;28;20031;-83
2022/06/06 05:30:24;;;;;;;8.68;4.18;;;;;;;21.38;42.62;101436.63;5071136;28;20056;-81
2022/06/06 05:32:50;;;;;;;5.57;3.75;;;;;;;21.40;42.44;101445.44;5071101;28;20103;-81
2022/06/06 05:35:45;;;;;;;6.70;3.92;;;;;;;21.37;42.57;101445.34;5072377;28;20522;-82
2022/06/06 05:38:32;;;;;;;5.22;3.75;;;;;;;21.31;42.90;101450.41;5070877;28;20033;-81
2022/06/06 05:41:04;;;;;;;5.47;3.35;;;;;;;21.47;42.75;101462.25;5072013;28;20044;-81
2022/06/06 05:43:40;;;;;;;9.15;3.70;;;;;;;21.49;42.67;101459.09;5074620;28;20115;-86
2022/06/06 05:46:20;;;;;;;6.03;4.03;;;;;;;21.55;42.33;101458.41;5076393;28;20028;-84
2022/06/06 05:49:03;;;;;;;8.48;3.97;;;;;;;21.56;42.55;101457.22;5074921;28;20135;-81
2022/06/06 05:51:47;;;;;;;6.05;3.30;;;;;;;21.60;42.62;101460.88;5075067;28;20111;-83
2022/06/06 05:54:16;;;;;;;6.80;3.47;;;;;;;21.66;42.63;101453.03;5074951;28;20029;-83
2022/06/06 05:57:13;;;;;;;6.53;3.75;;;;;;;21.66;42.73;101453.03;5074680;28;20111;-82
2022/06/06 06:00:06;;;;;;;9.07;4.22;;;;;;;21.85;42.54;101461.31;5074998;28;20028;-86
2022/06/06 06:03:22;;;;;;;7.93;3.40;;;;;;;21.99;42.54;101460.75;5074565;28;20132;-83
2022/06/06 06:06:13;;;;;;;5.85;3.20;;;;;;;22.18;42.23;101459.06;5071008;28;20041;-83
2022/06/06 06:09:01;;;;;;;6.03;3.55;;;;;;;22.36;42.17;101463.69;5075754;28;20493;-83
2022/06/06 06:11:57;;;;;;;6.43;2.92;;;;;;;22.40;42.07;101460.97;5074511;28;20043;-82
2022/06/06 06:14:34;;;;;;;3.75;2.90;;;;;;;22.51;42.00;101467.47;5074486;28;20372;-84
2022/06/06 06:17:02;;;;;;;6.00;3.40;;;;;;;22.61;41.91;101463.25;5074481;28;20562;-83
2022/06/06 06:19:43;;;;;;;5.47;2.92;;;;;;;22.64;41.76;101468.84;5075362;28;20021;-83
2022/06/06 06:22:10;;;;;;;3.90;2.95;;;;;;;22.80;41.38;101465.06;5055592;28;20032;-83
2022/06/06 06:24:39;;;;;;;6.70;3.42;;;;;;;22.83;41.23;101465.13;5054306;28;20021;-84
2022/06/06 06:27:06;;;;;;;5.15;3.10;;;;;;;22.89;41.44;101473.97;5055430;28;20036;-82
2022/06/06 06:29:32;;;;;;;5.15;2.90;;;;;;;22.85;41.15;101471.16;5054159;28;20055;-82
2022/06/06 06:32:08;;;;;;;5.28;2.60;;;;;;;22.71;41.43;101468.94;5055331;28;20028;-82
2022/06/06 06:35:06;;;;;;;6.15;3.22;;;;;;;22.98;40.83;101471.72;5055198;28;20025;-82
2022/06/06 06:37:41;;;;;;;4.20;2.70;;;;;;;22.86;40.89;101474.75;5055342;28;20104;-83
2022/06/06 06:40:13;;;;;;;6.28;3.10;;;;;;;23.09;40.90;101477.41;5053746;28;20081;-83
2022/06/06 06:42:38;;;;;;;6.13;3.22;;;;;;;23.20;40.53;101483.88;5053753;28;20064;-84
2022/06/06 06:45:22;;;;;;;6.65;3.13;;;;;;;23.28;40.38;101484.78;5053777;28;20060;-84
2022/06/06 06:47:54;;;;;;;6.53;3.30;;;;;;;23.23;40.31;101483.13;5053989;28;20033;-82
2022/06/06 06:50:34;;;;;;;6.53;3.33;;;;;;;23.26;40.08;101482.38;5059775;28;20024;-84
2022/06/06 06:53:41;;;;;;;4.47;3.22;;;;;;;23.35;39.78;101480.09;5073080;28;20020;-83
2022/06/06 06:56:25;;;;;;;3.72;2.53;;;;;;;23.36;39.49;101481.69;5073555;28;20029;-82
2022/06/06 06:59:02;;;;;;;5.05;2.45;;;;;;;23.46;39.72;101482.97;5074970;28;20028;-85
2022/06/06 07:01:37;;;;;;;4.45;3.03;;;;;;;23.49;39.36;101476.63;5073583;28;20062;-85
2022/06/06 07:10:22;;;;;;;8.48;2.70;;;;;;;23.62;38.83;101480.78;5074655;28;20540;-83
2022/06/06 07:13:12;;;;;;;4.10;2.60;;;;;;;23.75;39.09;101486.88;5074587;28;20020;-84
2022/06/06 07:16:20;;;;;;;4.85;2.47;;;;;;;23.86;38.48;101475.78;5072604;28;20379;-86
2022/06/06 07:18:52;;;;;;;4.63;2.47;;;;;;;24.01;38.24;101477.50;5071000;28;20032;-83
2022/06/06 07:21:19;;;;;;;4.30;2.72;;;;;;;24.05;38.20;101483.94;5072532;28;20029;-83
2022/06/06 07:23:48;;;;;;;7.07;3.65;;;;;;;24.02;38.55;101477.13;5072935;28;20028;-83
2022/06/06 07:26:14;;;;;;;5.47;2.57;;;;;;;24.06;38.40;101466.00;5072990;28;20020;-83
2022/06/06 07:28:40;;;;;;;3.85;1.92;;;;;;;24.18;37.98;101471.28;5073082;28;20086;-82
2022/06/06 07:31:24;;;;;;;4.63;2.85;;;;;;;24.15;38.34;101479.63;5072915;28;20549;-84
2022/06/06 07:34:09;;;;;;;5.20;2.47;;;;;;;24.41;37.96;101467.44;5072990;28;20035;-81
2022/06/06 07:36:49;;;;;;;4.35;2.35;;;;;;;24.52;37.79;101473.91;5072927;28;20028;-81
2022/06/06 07:39:37;;;;;;;;;;;;;;;24.55;37.65;101473.09;5073091;28;20047;-83
2022/06/06 07:42:41;;;;;;;4.95;2.35;;;;;;;24.57;37.81;101474.34;5071296;28;19916;-85
2022/06/06 07:45:27;;;;;;;8.45;4.00;;;;;;;24.55;37.60;101473.09;5070970;28;20104;-82
2022/06/06 07:48:02;;;;;;;11.95;4.13;;;;;;;24.47;37.53;101463.09;5073397;28;20020;-84
2022/06/06 07:51:00;;;;;;;9.30;3.13;;;;;;;24.46;37.66;101461.47;5072897;28;20024;-86
2022/06/06 07:53:29;;;;;;;7.82;2.83;;;;;;;24.47;38.05;101460.28;5064028;28;20115;-83
2022/06/06 07:56:17;;;;;;;4.90;3.17;;;;;;;24.61;37.78;101469.53;5071886;28;20506;-86
2022/06/06 07:59:06;;;;;;;4.50;2.63;;;;;;;24.62;37.91;101473.94;5067047;28;20028;-84
2022/06/06 08:01:53;;;;;;;4.53;3.13;;;;;;;24.67;38.15;101469.19;5052980;28;20049;-84
2022/06/06 08:04:34;;;;;;;5.68;3.28;;;;;;;24.67;37.84;101466.38;5052432;28;20036;-86
2022/06/06 08:07:05;;;;;;;9.82;3.95;;;;;;;24.81;37.72;101466.47;5054191;28;20391;-84
2022/06/06 08:09:47;;;;;;;9.93;4.13;;;;;;;24.90;38.17;101472.47;5060907;28;20097;-82
2022/06/06 08:12:26;;;;;;;4.32;3.20;;;;;;;24.92;38.35;101467.28;5053556;28;20025;-85
2022/06/06 08:15:11;;;;;;;5.15;3.20;;;;;;;25.11;38.08;101461.41;5052608;28;20029;-85
2022/06/06 08:17:50;;;;;;;9.38;4.40;;;;;;;25.28;38.14;101464.63;5097302;28;20166;-85
2022/06/06 08:20:27;;;;;;;10.73;5.22;;;;;;;25.27;38.59;101457.44;5062124;28;20024;-84
2022/06/06 08:22:58;;;;;;;8.10;4.55;;;;;;;25.26;38.00;101459.44;5068198;28;20119;-85
2022/06/06 08:25:24;;;;;;;11.77;5.43;;;;;;;25.24;38.30;101452.63;5071663;28;20017;-86
2022/06/06 08:27:51;;;;;;;5.72;4.28;;;;;;;25.40;38.20;101451.09;5070904;28;20024;-85
2022/06/06 08:30:20;;;;;;;10.13;5.10;;;;;;;25.20;39.04;101458.22;5071030;28;20024;-84
2022/06/06 08:32:47;;;;;;;7.43;4.93;;;;;;;25.24;39.06;101459.03;5061973;28;20135;-85
2022/06/06 08:35:13;;;;;;;5.43;4.63;;;;;;;25.55;38.70;101460.28;5055885;28;20028;-85
2022/06/06 08:37:50;;;;;;;7.65;4.70;;;;;;;25.70;38.52;101461.09;5054773;28;20036;-84
2022/06/06 08:40:38;;;;;;;8.55;4.97;;;;;;;25.81;37.98;101459.13;5055216;28;20056;-80
2022/06/06 08:43:09;;;;;;;5.80;4.47;;;;;;;25.89;37.88;101457.91;5056213;28;20024;-85
2022/06/06 08:45:51;;;;;;;7.38;3.80;;;;;;;25.70;37.21;101453.50;5059644;28;20051;-81
2022/06/06 08:48:41;;;;;;;7.15;3.92;;;;;;;25.64;36.99;101457.91;5071806;28;20029;-82
2022/06/06 08:51:22;;;;;;;;;;;;;;;25.56;37.10;101456.28;5071450;28;20032;-85
2022/06/06 08:54:40;;;;;;;7.40;3.85;;;;;;;25.54;37.23;101463.47;5071198;28;19916;-83
2022/06/06 08:57:09;;;;;;;4.80;3.60;;;;;;;25.64;37.06;101454.28;5041046;28;20045;-83
2022/06/06 09:00:06;;;;;;;6.47;3.90;;;;;;;25.53;37.39;101447.88;5055412;28;20493;-83
2022/06/06 09:02:50;;;;;;;7.35;4.28;;;;;;;25.66;36.94;101458.28;5055001;28;20043;-83
2022/06/06 09:05:37;;;;;;;10.57;5.13;;;;;;;25.54;37.75;101461.47;5061513;28;20067;-83
2022/06/06 09:08:24;;;;;;;9.93;4.47;;;;;;;25.69;37.52;101465.06;5051523;28;20033;-86
2022/06/06 09:10:59;;;;;;;9.18;4.18;;;;;;;25.85;37.47;101465.53;5051361;28;20033;-84
2022/06/06 09:13:49;;;;;;;6.20;4.20;;;;;;;25.65;37.33;101459.50;5060229;28;20035;-85
2022/06/06 09:16:40;;;;;;;6.57;4.30;;;;;;;25.99;36.84;101465.50;5061978;28;20041;-83
2022/06/06 09:19:43;;;;;;;5.95;3.75;;;;;;;26.00;36.95;101471.91;5058140;28;20032;-84
2022/06/06 09:22:23;;;;;;;8.65;3.70;;;;;;;26.23;36.67;101468.69;5058412;28;20029;-84
2022/06/06 09:25:05;;;;;;;;;;;;;;;26.25;37.09;101464.28;5060569;28;20024;-85
2022/06/06 09:27:37;;;;;;;10.18;4.88;;;;;;;26.33;36.87;101467.88;5060382;28;19920;-88
2022/06/06 09:30:21;;;;;;;5.88;3.78;;;;;;;26.11;36.70;101472.69;5059364;28;20031;-90
2022/06/06 09:33:14;;;;;;;6.45;3.97;;;;;;;26.29;36.61;101478.25;5060042;28;20029;-91
2022/06/06 09:35:45;;;;;;;7.22;4.20;;;;;;;26.36;36.06;101475.44;5061105;28;20036;-90
2022/06/06 09:38:43;;;;;;;7.53;3.63;;;;;;;26.29;36.29;101478.25;5058945;28;20028;-91
2022/06/06 09:41:33;;;;;;;7.45;4.18;;;;;;;26.61;35.99;101477.44;5060594;28;20044;-89
2022/06/06 09:44:13;;;;;;;11.63;4.53;;;;;;;26.77;36.00;101475.75;5059861;28;21147;-90
2022/06/06 09:47:09;;;;;;;5.13;3.65;;;;;;;26.98;35.92;101479.66;5055791;28;20032;-87
2022/06/06 09:50:14;;;;;;;7.97;4.78;;;;;;;27.05;35.80;101462.84;5067097;28;20060;-92
2022/06/06 09:53:09;;;;;;;8.73;4.70;;;;;;;27.02;35.79;101475.66;5070615;28;20391;-92
2022/06/06 09:59:01;;;;;;;11.52;4.82;;;;;;;26.86;35.81;101483.75;5067924;28;20043;-94
2022/06/06 10:01:45;;;;;;;10.52;4.82;;;;;;;26.88;35.81;101481.31;5067128;28;20033;-90
2022/06/06 10:04:48;;;;;;;10.02;4.57;;;;;;;26.81;35.58;101476.53;5072606;28;20038;-88
2022/06/06 10:07:51;;;;;;;6.05;3.75;;;;;;;26.63;36.28;101484.22;5072624;28;20040;-91
2022/06/06 10:10:53;;;;;;;6.70;3.70;;;;;;;26.55;35.53;101477.03;5072469;28;20059;-91
2022/06/06 10:13:49;;;;;;;6.03;3.75;;;;;;;26.64;35.83;101485.03;5071519;28;20478;-90
2022/06/06 10:16:41;;;;;;;10.68;4.57;;;;;;;26.74;35.63;101479.38;5072591;28;20033;-90
2022/06/06 10:19:19;;;;;;;7.13;4.13;;;;;;;26.54;35.74;101481.06;5061728;28;20043;-87
2022/06/06 10:22:22;;;;;;;6.45;4.53;;;;;;;26.71;35.79;101476.59;5072365;28;20441;-90
2022/06/06 10:24:57;;;;;;;7.35;4.05;;;;;;;26.97;34.93;101467.66;5072465;28;20033;-92
2022/06/06 10:27:47;;;;;;;5.75;3.22;;;;;;;27.19;35.06;101473.97;5072412;28;20123;-92
2022/06/06 10:30:26;;;;;;;7.38;4.18;;;;;;;27.12;35.11;101462.00;5076050;28;20035;-89
2022/06/06 10:33:10;;;;;;;4.25;3.33;;;;;;;27.01;35.44;101471.25;5075873;28;20082;-92
2022/06/06 10:36:11;;;;;;;6.20;3.72;;;;;;;27.47;34.83;101472.22;5075752;28;20025;-93
2022/06/06 10:38:56;;;;;;;11.27;4.13;;;;;;;27.34;34.71;101469.06;5049750;28;20036;-94
2022/06/06 10:41:59;;;;;;;10.98;4.63;;;;;;;27.52;34.42;101474.59;5060094;28;20052;-92
2022/06/06 10:44:50;;;;;;;16.15;4.88;;;;;;;27.51;34.46;101473.78;5074348;28;20035;-90
2022/06/06 10:47:28;;;;;;;9.75;4.10;;;;;;;27.62;34.14;101465.28;5075987;28;20490;-90
2022/06/06 10:50:22;;;;;;;9.20;4.22;;;;;;;27.69;33.84;101475.69;5076297;28;20028;-93
2022/06/06 10:53:10;;;;;;;9.38;4.00;;;;;;;27.55;33.75;101468.94;5048896;28;20037;-90
2022/06/06 10:55:54;;;;;;;6.70;3.67;;;;;;;27.48;34.14;101468.97;5056216;28;20052;-92
2022/06/06 10:58:51;;;;;;;9.05;4.07;;;;;;;27.44;34.02;101473.84;5068400;28;20016;-93
2022/06/06 11:01:25;;;;;;;4.35;2.75;;;;;;;27.45;33.71;101474.63;5050367;28;20025;-90
2022/06/06 11:04:12;;;;;;;8.60;4.68;;;;;;;27.56;33.45;101475.34;5072051;28;20051;-93
2022/06/06 11:06:56;;;;;;;10.43;4.78;;;;;;;27.55;33.48;101477.34;5074998;28;20031;-90
2022/06/06 11:09:49;;;;;;;7.43;3.50;;;;;;;27.76;33.52;101481.25;5076096;28;20049;-93
2022/06/06 11:12:31;;;;;;;8.02;3.13;;;;;;;27.83;33.11;101475.56;5077237;28;20082;-94
2022/06/06 11:15:00;;;;;;;7.85;3.03;;;;;;;27.86;33.22;101472.72;5074213;28;20031;-92
2022/06/06 11:17:40;;;;;;;;;;;;;;;27.54;33.33;101475.75;5076156;28;20048;-89
2022/06/06 11:20:30;;;;;;;8.50;3.78;;;;;;;27.95;33.01;101457.41;5075734;28;19913;-93
2022/06/06 11:23:10;;;;;;;7.80;3.10;;;;;;;27.96;32.46;101465.41;5074389;28;20128;-92
2022/06/06 11:25:45;;;;;;;6.50;3.42;;;;;;;27.95;32.87;101452.59;5073353;28;20094;-88
2022/06/06 11:28:29;;;;;;;7.47;3.20;;;;;;;27.93;32.02;101461.44;5074708;28;20012;-90
2022/06/06 11:31:17;;;;;;;5.70;2.70;;;;;;;28.12;32.40;101457.25;5068455;28;20051;-87
2022/06/06 11:34:16;;;;;;;6.88;2.53;;;;;;;28.03;31.13;101456.13;5071315;28;20036;-93
2022/06/06 11:37:03;;;;;;;5.30;3.10;;;;;;;28.05;32.30;101462.16;5054742;28;20491;-93
2022/06/06 11:39:47;;;;;;;3.80;2.95;;;;;;;28.17;32.29;101453.97;5054740;28;20059;-87
2022/06/06 11:42:30;;;;;;;5.85;2.90;;;;;;;28.28;31.60;101453.09;5074115;28;20032;-91
2022/06/06 11:45:43;;;;;;;5.15;3.08;;;;;;;28.23;31.39;101445.09;5073181;28;20025;-88
2022/06/06 11:48:50;;;;;;;20.73;3.50;;;;;;;28.34;31.17;101457.88;5054958;28;20078;-89
2022/06/06 11:51:43;;;;;;;4.95;2.80;;;;;;;28.31;30.94;101458.69;5067770;28;20123;-87
2022/06/06 11:54:33;;;;;;;4.90;2.65;;;;;;;28.40;31.46;101455.38;5064215;28;20063;-91
2022/06/06 11:57:13;;;;;;;7.43;2.53;;;;;;;28.26;31.68;101455.50;5074305;28;20031;-93
2022/06/06 11:59:56;;;;;;;4.95;2.83;;;;;;;28.33;31.66;101452.63;5075804;28;20033;-90
2022/06/06 12:02:54;;;;;;;5.10;2.30;;;;;;;28.64;31.03;101459.09;5074729;28;20032;-93
2022/06/06 12:05:29;;;;;;;6.55;2.80;;;;;;;28.56;30.42;101452.78;5051783;28;20033;-91
2022/06/06 12:08:16;;;;;;;6.00;2.90;;;;;;;28.62;30.68;101456.72;5074391;28;20031;-90
2022/06/06 12:11:19;;;;;;;6.63;3.50;;;;;;;28.60;30.67;101450.72;5054151;28;20021;-92
2022/06/06 12:14:07;;;;;;;3.53;2.95;;;;;;;28.54;30.42;101460.84;5070303;28;20028;-90
2022/06/06 12:16:40;;;;;;;6.45;3.00;;;;;;;28.70;30.42;101452.59;5070923;28;20028;-93
2022/06/06 12:19:23;;;;;;;6.32;3.03;;;;;;;28.79;30.16;101463.34;5073928;28;20032;-88
2022/06/06 12:21:54;;;;;;;5.00;2.63;;;;;;;28.63;30.38;101465.94;5073394;28;20032;-93
2022/06/06 12:24:51;;;;;;;5.20;2.47;;;;;;;28.56;29.51;101468.84;5068407;28;20478;-86
2022/06/06 12:27:42;;;;;;;15.07;4.47;;;;;;;28.69;29.99;101461.47;5061427;28;20868;-88
2022/06/06 12:30:22;;;;;;;7.80;3.55;;;;;;;28.56;29.36;101468.84;5059968;28;20048;-88
2022/06/06 12:32:52;;;;;;;7.75;2.53;;;;;;;28.78;29.93;101466.56;5060569;28;20067;-90
2022/06/06 12:35:52;;;;;;;6.93;2.65;;;;;;;28.66;30.62;101474.34;5062380;28;20031;-90
2022/06/06 12:38:24;;;;;;;6.60;2.70;;;;;;;28.91;30.52;101478.91;5010239;28;20032;-87
2022/06/06 12:41:22;;;;;;;4.05;2.22;;;;;;;28.87;30.30;101469.66;5061193;28;20047;-88
2022/06/06 12:44:02;;;;;;;4.68;1.88;;;;;;;28.77;30.29;101467.78;5092862;28;20067;-89